Darstellungsparameter: Aktuell verwendete Einstellungen:
Skalierung der Graphiken ... ?
xyx+y,   Skalierungsfaktor:      Skalierung: Modus: x, Faktor: 1
Darstellungszeitraum ... ?
Vom - - bis: - -   Zeitraum: 29.03.2003 - 29.03.2003
Min/Max/Avg-Anzeige ... ?
Zeige MMA aktuell
Zeige MMA Monat
Zeige MMA alles
Zeige --A aktuell
Zeige --A Monat
Zeige --A alles
Keine MMA-Anzeige
MMA:
Keine MMA-Graphiken
MMA-Basis: 29.03.2003 - 29.03.2003
Quicknavigation für Darstellung... ?
Tage:      1T, 2T, 3T, 5T -1T -2T -3T -5T +1T +2T +3T +5T
Wochen: 1W, 2W, 3W -1W -2W -3W +1W +2W +3W
Monate: 1M, 3M, 6M -1M -3M -6M +1M +3M +6M
Jahre:    1J, 3J, 5J, 10J -1J -3J -5J -10J +1J +3J +5J +10J
Nutze für die Darstellung ... ?
Originaldaten oder Mittelwerte auf ...
Stundenbasis Tagesbasis Wochenbasis
Monatsbasis Jahresbasis      Datenbasis: Original-Daten
Darstellen als:
Statistik (Auto) Statistik J:M      Darstellung:
Zur Graphik,    zurück zur Übersicht aller Sensoren.
 
Tabellarische Datenbersicht: ?
 
Sensor: Nr:Datum:Temp:Feuchte:Taupunkt:
Aussen-T/F 1 29-03-2003 00:07:16 15.1 C 51 % 5.05 C
2 29-03-2003 00:19:16 14.9 C 53 % 5.42 C
3 29-03-2003 00:31:16 14.6 C 55 % 5.67 C
4 29-03-2003 00:43:16 14.3 C 55 % 5.39 C
5 29-03-2003 00:55:16 14.2 C 55 % 5.3 C
6 29-03-2003 01:07:16 14.1 C 56 % 5.46 C
7 29-03-2003 01:19:16 14 C 58 % 5.88 C
8 29-03-2003 01:31:16 14 C 56 % 5.37 C
9 29-03-2003 01:43:16 13.8 C 59 % 5.94 C
10 29-03-2003 01:55:16 13.8 C 60 % 6.18 C
11 29-03-2003 02:07:16 13.5 C 60 % 5.9 C
12 29-03-2003 02:19:16 13.4 C 60 % 5.8 C
13 29-03-2003 02:31:16 13.4 C 60 % 5.8 C
14 29-03-2003 02:43:16 13.3 C 61 % 5.95 C
15 29-03-2003 02:55:16 13.1 C 62 % 5.99 C
16 29-03-2003 03:07:16 13 C 62 % 5.9 C
17 29-03-2003 03:19:16 12.8 C 63 % 5.94 C
18 29-03-2003 03:31:16 12.9 C 63 % 6.04 C
19 29-03-2003 03:43:16 12.8 C 64 % 6.17 C
20 29-03-2003 03:55:16 12.7 C 64 % 6.07 C
21 29-03-2003 04:07:16 12.7 C 64 % 6.07 C
22 29-03-2003 04:19:16 12.4 C 65 % 6.01 C
23 29-03-2003 04:31:16 12.2 C 65 % 5.82 C
24 29-03-2003 04:43:16 12.1 C 66 % 5.95 C
25 29-03-2003 04:55:16 12.1 C 66 % 5.95 C
Sensor: Nr:Datum:Temp:Feuchte:Taupunkt:
Aussen-T/F 26 29-03-2003 05:07:16 12.1 C 67 % 6.17 C
27 29-03-2003 05:19:16 11.9 C 68 % 6.19 C
28 29-03-2003 05:31:16 11.8 C 68 % 6.09 C
29 29-03-2003 05:43:16 11.7 C 68 % 6 C
30 29-03-2003 05:55:16 11.8 C 68 % 6.09 C
31 29-03-2003 06:07:16 11.8 C 69 % 6.31 C
32 29-03-2003 06:19:16 11.8 C 68 % 6.09 C
33 29-03-2003 06:31:16 11.7 C 69 % 6.21 C
34 29-03-2003 06:43:16 11.7 C 70 % 6.42 C
35 29-03-2003 06:55:16 11.7 C 72 % 6.83 C
36 29-03-2003 07:07:16 11.8 C 71 % 6.72 C
37 29-03-2003 07:19:16 12 C 70 % 6.71 C
38 29-03-2003 07:31:16 12.1 C 69 % 6.59 C
39 29-03-2003 07:43:16 12.2 C 69 % 6.69 C
40 29-03-2003 07:55:16 12 C 70 % 6.71 C
41 29-03-2003 08:07:16 12.2 C 69 % 6.69 C
42 29-03-2003 08:19:16 12.7 C 67 % 6.74 C
43 29-03-2003 08:31:16 12.7 C 68 % 6.95 C
44 29-03-2003 08:43:16 12.9 C 68 % 7.14 C
45 29-03-2003 08:55:16 13.4 C 66 % 7.19 C
46 29-03-2003 09:07:16 13.5 C 65 % 7.06 C
47 29-03-2003 09:19:16 14.5 C 61 % 7.08 C
48 29-03-2003 09:31:16 15.4 C 55 % 6.42 C
49 29-03-2003 09:43:38 15.9 C 53 % 6.34 C
50 29-03-2003 09:55:38 16.8 C 51 % 6.62 C
Sensor: Nr:Datum:Temp:Feuchte:Taupunkt:
Aussen-T/F 51 29-03-2003 10:07:09 17.2 C 50 % 6.7 C
52 29-03-2003 10:19:03 17.4 C 49 % 6.59 C
53 29-03-2003 10:31:15 17.1 C 49 % 6.31 C
54 29-03-2003 10:43:16 17 C 48 % 5.92 C
55 29-03-2003 10:55:16 17.3 C 47 % 5.89 C
56 29-03-2003 11:07:16 17.8 C 46 % 6.04 C
57 29-03-2003 11:19:16 18.5 C 44 % 6.03 C
58 29-03-2003 11:31:16 19.3 C 42 % 6.08 C
59 29-03-2003 11:43:16 19.8 C 40 % 5.82 C
60 29-03-2003 11:55:16 20.1 C 41 % 6.45 C
61 29-03-2003 12:07:29 20.2 C 41 % 6.54 C
62 29-03-2003 12:19:29 21 C 38 % 6.15 C
63 29-03-2003 12:31:17 22.1 C 36 % 6.34 C
64 29-03-2003 12:43:17 22.1 C 36 % 6.34 C
65 29-03-2003 12:55:17 22.3 C 36 % 6.52 C
66 29-03-2003 13:07:17 21.2 C 36 % 5.55 C
67 29-03-2003 13:19:17 21.5 C 38 % 6.6 C
68 29-03-2003 13:31:17 22.5 C 36 % 6.7 C
69 29-03-2003 13:43:15 23.6 C 35 % 7.25 C
70 29-03-2003 13:55:15 24 C 33 % 6.75 C
71 29-03-2003 14:07:34 23.4 C 32 % 5.78 C
72 29-03-2003 14:19:34 24.6 C 31 % 6.36 C
73 29-03-2003 14:31:15 23.9 C 31 % 5.76 C
74 29-03-2003 14:43:16 23.1 C 32 % 5.52 C
75 29-03-2003 14:55:16 21.7 C 35 % 5.58 C
Sensor: Nr:Datum:Temp:Feuchte:Taupunkt:
Aussen-T/F 76 29-03-2003 15:07:15 21.4 C 37 % 6.12 C
77 29-03-2003 15:19:15 21.7 C 36 % 5.99 C
78 29-03-2003 15:31:15 21.4 C 37 % 6.12 C
79 29-03-2003 15:42:59 21.1 C 37 % 5.86 C
80 29-03-2003 15:55:38 21 C 38 % 6.15 C
81 29-03-2003 16:07:16 20.3 C 40 % 6.27 C
82 29-03-2003 16:19:16 18.8 C 47 % 7.26 C
83 29-03-2003 16:31:16 17.1 C 51 % 6.89 C
84 29-03-2003 16:43:17 14.6 C 86 % 12.29 C
85 29-03-2003 16:55:16 15.1 C 89 % 13.3 C
86 29-03-2003 17:07:17 15.2 C 88 % 13.23 C
87 29-03-2003 17:19:17 15.7 C 88 % 13.72 C
88 29-03-2003 17:31:17 15.9 C 86 % 13.56 C
89 29-03-2003 17:43:16 15.7 C 83 % 12.82 C
90 29-03-2003 17:55:16 15.3 C 84 % 12.61 C
91 29-03-2003 18:07:16 14.9 C 86 % 12.58 C
92 29-03-2003 18:19:16 14.7 C 85 % 12.21 C
93 29-03-2003 18:31:16 14.5 C 84 % 11.83 C
94 29-03-2003 18:43:16 14.4 C 83 % 11.55 C
95 29-03-2003 18:55:16 14.3 C 84 % 11.64 C
96 29-03-2003 19:07:16 14.1 C 82 % 11.08 C
97 29-03-2003 19:19:16 14.1 C 83 % 11.26 C
98 29-03-2003 19:31:16 14.1 C 83 % 11.26 C
99 29-03-2003 19:43:15 14.2 C 83 % 11.36 C
100 29-03-2003 19:55:15 14.1 C 82 % 11.08 C
Sensor: Nr:Datum:Temp:Feuchte:Taupunkt:
Aussen-T/F 101 29-03-2003 20:07:15 14 C 82 % 10.98 C
102 29-03-2003 20:19:15 13.9 C 81 % 10.7 C
103 29-03-2003 20:31:15 13.7 C 80 % 10.32 C
104 29-03-2003 20:43:16 13.6 C 79 % 10.03 C
105 29-03-2003 20:55:16 13.6 C 80 % 10.22 C
106 29-03-2003 21:07:16 13.5 C 80 % 10.12 C
107 29-03-2003 21:19:16 13.5 C 80 % 10.12 C
108 29-03-2003 21:31:16 13.5 C 81 % 10.31 C
109 29-03-2003 21:43:15 13.6 C 80 % 10.22 C
110 29-03-2003 21:55:15 13.5 C 80 % 10.12 C
111 29-03-2003 23:08:16 13.4 C 81 % 10.21 C
112 29-03-2003 23:20:16 13.4 C 80 % 10.02 C
113 29-03-2003 23:32:16 13.4 C 81 % 10.21 C
114 29-03-2003 23:44:16 13.4 C 81 % 10.21 C
115 29-03-2003 23:56:16 13.3 C 81 % 10.11 C

Legende:
   Min
   Max


Maximal/Minimal-Werte vom 29.03.2003 - 29.03.2003

Sensor Min Max Avg
Temp
(Aussen-T/F)
11.7 °C
29-03-2003  05:43:16
24.6 °C
29-03-2003  14:19:34
15.56 °C
Feuchte
(Aussen-T/F)
31 %
29-03-2003  14:19:34
89 %
29-03-2003  16:55:16
61.85 %
Taupunkt
(Aussen-T/F)
5.05 C
29-03-2003  00:07:16
13.72 C
29-03-2003  17:19:17
7.56 C

Die Daten stammen von einer Davis Vantage Pro 2 Wetter-Station und werden unter Linux mit der Software wview2wettercgi und aufbereitet. Alle Angaben erfolgen ohne Gewähr für ihre Vollständigkeit oder Richtigkeit.
Kontakt: Rainer Krienke krienke@uni-koblenz.de . Meine Webseiten an der Uni Koblenz oder privat.
Version: $Revision: 0.78 $